sensor_id;sensor_type;location;lat;lon;timestamp;P1;durP1;ratioP1;P2;durP2;ratioP2
46284;SDS011;32018;59.182;18.148;2023-05-10T00:01:10;2.15;;;1.70;;
46284;SDS011;32018;59.182;18.148;2023-05-10T00:03:35;2.80;;;2.33;;
46284;SDS011;32018;59.182;18.148;2023-05-10T00:06:00;2.58;;;1.98;;
46284;SDS011;32018;59.182;18.148;2023-05-10T00:08:25;2.03;;;1.90;;
46284;SDS011;32018;59.182;18.148;2023-05-10T00:10:51;2.23;;;2.10;;
46284;SDS011;32018;59.182;18.148;2023-05-10T00:13:16;2.05;;;1.83;;
46284;SDS011;32018;59.182;18.148;2023-05-10T00:15:42;2.03;;;1.83;;
46284;SDS011;32018;59.182;18.148;2023-05-10T00:18:07;2.35;;;2.15;;
46284;SDS011;32018;59.182;18.148;2023-05-10T00:20:32;2.38;;;2.17;;
46284;SDS011;32018;59.182;18.148;2023-05-10T00:22:57;3.97;;;2.67;;
46284;SDS011;32018;59.182;18.148;2023-05-10T00:25:23;2.17;;;2.03;;
46284;SDS011;32018;59.182;18.148;2023-05-10T00:27:48;2.40;;;1.90;;
46284;SDS011;32018;59.182;18.148;2023-05-10T00:30:14;7.28;;;3.38;;
46284;SDS011;32018;59.182;18.148;2023-05-10T00:32:40;4.38;;;3.40;;
46284;SDS011;32018;59.182;18.148;2023-05-10T00:35:05;2.53;;;2.08;;
46284;SDS011;32018;59.182;18.148;2023-05-10T00:37:31;3.38;;;3.08;;
46284;SDS011;32018;59.182;18.148;2023-05-10T00:39:56;3.57;;;3.27;;
46284;SDS011;32018;59.182;18.148;2023-05-10T00:42:21;3.87;;;3.33;;
46284;SDS011;32018;59.182;18.148;2023-05-10T00:44:47;4.55;;;3.45;;
46284;SDS011;32018;59.182;18.148;2023-05-10T00:47:12;5.95;;;3.47;;
46284;SDS011;32018;59.182;18.148;2023-05-10T00:49:37;4.28;;;3.38;;
46284;SDS011;32018;59.182;18.148;2023-05-10T00:52:03;3.28;;;3.00;;
46284;SDS011;32018;59.182;18.148;2023-05-10T00:54:28;3.85;;;3.30;;
46284;SDS011;32018;59.182;18.148;2023-05-10T00:56:54;8.52;;;4.15;;
46284;SDS011;32018;59.182;18.148;2023-05-10T00:59:19;4.25;;;3.88;;
46284;SDS011;32018;59.182;18.148;2023-05-10T01:01:45;4.68;;;2.75;;
46284;SDS011;32018;59.182;18.148;2023-05-10T01:04:11;1.88;;;1.77;;
46284;SDS011;32018;59.182;18.148;2023-05-10T01:06:37;3.55;;;3.25;;
46284;SDS011;32018;59.182;18.148;2023-05-10T01:09:02;3.97;;;3.67;;
46284;SDS011;32018;59.182;18.148;2023-05-10T01:11:28;3.93;;;2.33;;
46284;SDS011;32018;59.182;18.148;2023-05-10T01:13:55;3.70;;;3.38;;
46284;SDS011;32018;59.182;18.148;2023-05-10T01:16:21;3.05;;;2.75;;
46284;SDS011;32018;59.182;18.148;2023-05-10T01:18:47;2.85;;;2.55;;
46284;SDS011;32018;59.182;18.148;2023-05-10T01:23:44;2.28;;;2.00;;
46284;SDS011;32018;59.182;18.148;2023-05-10T01:34:23;2.30;;;2.10;;
46284;SDS011;32018;59.182;18.148;2023-05-10T01:37:25;2.15;;;2.03;;
46284;SDS011;32018;59.182;18.148;2023-05-10T01:39:55;2.53;;;2.33;;
46284;SDS011;32018;59.182;18.148;2023-05-10T01:42:24;1.92;;;1.83;;
46284;SDS011;32018;59.182;18.148;2023-05-10T01:49:54;2.15;;;2.03;;
46284;SDS011;32018;59.182;18.148;2023-05-10T01:52:29;2.17;;;2.08;;
46284;SDS011;32018;59.182;18.148;2023-05-10T01:54:59;2.05;;;1.95;;
46284;SDS011;32018;59.182;18.148;2023-05-10T01:57:26;2.25;;;2.05;;
46284;SDS011;32018;59.182;18.148;2023-05-10T01:59:52;2.28;;;2.10;;
46284;SDS011;32018;59.182;18.148;2023-05-10T02:02:19;2.58;;;2.28;;
46284;SDS011;32018;59.182;18.148;2023-05-10T02:04:45;2.45;;;2.15;;
46284;SDS011;32018;59.182;18.148;2023-05-10T02:07:11;1.98;;;1.88;;
46284;SDS011;32018;59.182;18.148;2023-05-10T02:09:36;2.03;;;1.90;;
46284;SDS011;32018;59.182;18.148;2023-05-10T02:12:03;2.28;;;1.90;;
46284;SDS011;32018;59.182;18.148;2023-05-10T02:14:30;2.00;;;1.90;;
46284;SDS011;32018;59.182;18.148;2023-05-10T02:16:57;2.15;;;1.83;;
46284;SDS011;32018;59.182;18.148;2023-05-10T02:19:23;3.58;;;3.28;;
46284;SDS011;32018;59.182;18.148;2023-05-10T02:21:48;2.20;;;2.10;;
46284;SDS011;32018;59.182;18.148;2023-05-10T02:24:14;2.20;;;2.00;;
46284;SDS011;32018;59.182;18.148;2023-05-10T02:26:40;2.25;;;2.05;;
46284;SDS011;32018;59.182;18.148;2023-05-10T02:29:07;1.80;;;1.70;;
46284;SDS011;32018;59.182;18.148;2023-05-10T02:31:33;2.30;;;2.10;;
46284;SDS011;32018;59.182;18.148;2023-05-10T02:33:58;2.38;;;2.17;;
46284;SDS011;32018;59.182;18.148;2023-05-10T02:36:25;2.00;;;1.90;;
46284;SDS011;32018;59.182;18.148;2023-05-10T02:38:52;1.90;;;1.80;;
46284;SDS011;32018;59.182;18.148;2023-05-10T02:41:18;2.33;;;2.20;;
46284;SDS011;32018;59.182;18.148;2023-05-10T02:43:44;2.03;;;1.92;;
46284;SDS011;32018;59.182;18.148;2023-05-10T02:46:10;3.60;;;3.35;;
46284;SDS011;32018;59.182;18.148;2023-05-10T02:48:35;2.55;;;2.35;;
46284;SDS011;32018;59.182;18.148;2023-05-10T02:51:03;2.55;;;2.35;;
46284;SDS011;32018;59.182;18.148;2023-05-10T02:53:33;2.50;;;2.30;;
46284;SDS011;32018;59.182;18.148;2023-05-10T02:56:00;2.30;;;2.20;;
46284;SDS011;32018;59.182;18.148;2023-05-10T02:58:25;2.25;;;2.05;;
46284;SDS011;32018;59.182;18.148;2023-05-10T03:00:51;2.25;;;2.15;;
46284;SDS011;32018;59.182;18.148;2023-05-10T03:03:16;2.10;;;2.00;;
46284;SDS011;32018;59.182;18.148;2023-05-10T03:05:42;2.53;;;2.33;;
46284;SDS011;32018;59.182;18.148;2023-05-10T03:08:07;2.42;;;2.22;;
46284;SDS011;32018;59.182;18.148;2023-05-10T03:10:32;2.15;;;1.95;;
46284;SDS011;32018;59.182;18.148;2023-05-10T03:13:06;2.35;;;2.15;;
46284;SDS011;32018;59.182;18.148;2023-05-10T03:18:07;2.50;;;2.30;;
46284;SDS011;32018;59.182;18.148;2023-05-10T03:20:35;2.28;;;2.08;;
46284;SDS011;32018;59.182;18.148;2023-05-10T03:23:07;2.28;;;2.10;;
46284;SDS011;32018;59.182;18.148;2023-05-10T03:25:36;4.70;;;3.83;;
46284;SDS011;32018;59.182;18.148;2023-05-10T03:28:02;3.00;;;2.80;;
46284;SDS011;32018;59.182;18.148;2023-05-10T03:30:28;2.58;;;2.38;;
46284;SDS011;32018;59.182;18.148;2023-05-10T03:32:54;2.13;;;2.03;;
46284;SDS011;32018;59.182;18.148;2023-05-10T03:35:19;3.08;;;2.88;;
46284;SDS011;32018;59.182;18.148;2023-05-10T03:37:45;4.45;;;4.00;;
46284;SDS011;32018;59.182;18.148;2023-05-10T03:40:10;3.05;;;2.85;;
46284;SDS011;32018;59.182;18.148;2023-05-10T03:42:35;4.18;;;2.92;;
46284;SDS011;32018;59.182;18.148;2023-05-10T03:45:01;2.70;;;2.35;;
46284;SDS011;32018;59.182;18.148;2023-05-10T03:47:26;3.22;;;2.97;;
46284;SDS011;32018;59.182;18.148;2023-05-10T03:49:51;4.47;;;4.07;;
46284;SDS011;32018;59.182;18.148;2023-05-10T03:52:16;5.07;;;4.68;;
46284;SDS011;32018;59.182;18.148;2023-05-10T03:54:42;3.72;;;3.42;;
46284;SDS011;32018;59.182;18.148;2023-05-10T03:57:07;4.10;;;3.80;;
46284;SDS011;32018;59.182;18.148;2023-05-10T03:59:33;4.43;;;3.97;;
46284;SDS011;32018;59.182;18.148;2023-05-10T04:01:58;3.20;;;2.90;;
46284;SDS011;32018;59.182;18.148;2023-05-10T04:04:23;3.88;;;3.58;;
46284;SDS011;32018;59.182;18.148;2023-05-10T04:06:49;6.15;;;5.55;;
46284;SDS011;32018;59.182;18.148;2023-05-10T04:09:14;4.88;;;4.47;;
46284;SDS011;32018;59.182;18.148;2023-05-10T04:11:40;4.68;;;4.38;;
46284;SDS011;32018;59.182;18.148;2023-05-10T04:14:05;4.72;;;4.32;;
46284;SDS011;32018;59.182;18.148;2023-05-10T04:16:30;3.80;;;3.50;;
46284;SDS011;32018;59.182;18.148;2023-05-10T04:18:55;4.07;;;3.77;;
46284;SDS011;32018;59.182;18.148;2023-05-10T04:21:21;10.32;;;4.95;;
46284;SDS011;32018;59.182;18.148;2023-05-10T04:23:46;4.15;;;3.85;;
46284;SDS011;32018;59.182;18.148;2023-05-10T04:26:12;5.65;;;4.68;;
46284;SDS011;32018;59.182;18.148;2023-05-10T04:28:37;3.38;;;3.08;;
46284;SDS011;32018;59.182;18.148;2023-05-10T04:31:03;6.47;;;5.88;;
46284;SDS011;32018;59.182;18.148;2023-05-10T04:33:28;5.15;;;4.65;;
46284;SDS011;32018;59.182;18.148;2023-05-10T04:35:54;3.83;;;3.53;;
46284;SDS011;32018;59.182;18.148;2023-05-10T04:38:19;4.70;;;4.40;;
46284;SDS011;32018;59.182;18.148;2023-05-10T04:40:44;6.28;;;4.57;;
46284;SDS011;32018;59.182;18.148;2023-05-10T04:43:09;3.20;;;2.90;;
46284;SDS011;32018;59.182;18.148;2023-05-10T04:45:35;4.03;;;3.40;;
46284;SDS011;32018;59.182;18.148;2023-05-10T04:48:00;4.20;;;3.90;;
46284;SDS011;32018;59.182;18.148;2023-05-10T04:50:25;5.20;;;4.43;;
46284;SDS011;32018;59.182;18.148;2023-05-10T04:52:50;3.40;;;3.20;;
46284;SDS011;32018;59.182;18.148;2023-05-10T04:55:16;4.25;;;3.90;;
46284;SDS011;32018;59.182;18.148;2023-05-10T04:57:41;6.75;;;5.00;;
46284;SDS011;32018;59.182;18.148;2023-05-10T05:00:07;3.90;;;3.70;;
46284;SDS011;32018;59.182;18.148;2023-05-10T05:02:32;5.07;;;4.57;;
46284;SDS011;32018;59.182;18.148;2023-05-10T05:04:57;4.07;;;3.40;;
46284;SDS011;32018;59.182;18.148;2023-05-10T05:07:22;11.25;;;4.28;;
46284;SDS011;32018;59.182;18.148;2023-05-10T05:09:48;6.78;;;4.75;;
46284;SDS011;32018;59.182;18.148;2023-05-10T05:12:13;4.05;;;3.65;;
46284;SDS011;32018;59.182;18.148;2023-05-10T05:14:39;5.13;;;4.75;;
46284;SDS011;32018;59.182;18.148;2023-05-10T05:17:04;4.60;;;4.20;;
46284;SDS011;32018;59.182;18.148;2023-05-10T05:19:30;3.70;;;3.40;;
46284;SDS011;32018;59.182;18.148;2023-05-10T05:21:55;3.20;;;2.72;;
46284;SDS011;32018;59.182;18.148;2023-05-10T05:24:21;4.38;;;3.67;;
46284;SDS011;32018;59.182;18.148;2023-05-10T05:26:46;7.88;;;4.10;;
46284;SDS011;32018;59.182;18.148;2023-05-10T05:29:12;3.47;;;3.28;;
46284;SDS011;32018;59.182;18.148;2023-05-10T05:31:37;26.20;;;4.90;;
46284;SDS011;32018;59.182;18.148;2023-05-10T05:34:02;3.90;;;3.25;;
46284;SDS011;32018;59.182;18.148;2023-05-10T05:36:27;4.53;;;3.95;;
46284;SDS011;32018;59.182;18.148;2023-05-10T05:38:53;4.13;;;3.75;;
46284;SDS011;32018;59.182;18.148;2023-05-10T05:41:18;4.63;;;3.70;;
46284;SDS011;32018;59.182;18.148;2023-05-10T05:43:43;3.85;;;3.55;;
46284;SDS011;32018;59.182;18.148;2023-05-10T05:46:08;3.80;;;3.50;;
46284;SDS011;32018;59.182;18.148;2023-05-10T05:48:34;3.90;;;3.47;;
46284;SDS011;32018;59.182;18.148;2023-05-10T05:50:59;3.60;;;3.30;;
46284;SDS011;32018;59.182;18.148;2023-05-10T05:53:24;12.60;;;4.13;;
46284;SDS011;32018;59.182;18.148;2023-05-10T05:55:53;2.92;;;2.72;;
46284;SDS011;32018;59.182;18.148;2023-05-10T05:58:19;4.15;;;3.50;;
46284;SDS011;32018;59.182;18.148;2023-05-10T06:00:44;5.97;;;3.80;;
46284;SDS011;32018;59.182;18.148;2023-05-10T06:03:09;4.10;;;3.60;;
46284;SDS011;32018;59.182;18.148;2023-05-10T06:05:35;4.45;;;3.10;;
46284;SDS011;32018;59.182;18.148;2023-05-10T06:08:00;3.93;;;3.53;;
46284;SDS011;32018;59.182;18.148;2023-05-10T06:10:26;8.73;;;3.55;;
46284;SDS011;32018;59.182;18.148;2023-05-10T06:12:51;6.65;;;3.33;;
46284;SDS011;32018;59.182;18.148;2023-05-10T06:15:17;3.55;;;2.88;;
46284;SDS011;32018;59.182;18.148;2023-05-10T06:17:42;7.07;;;3.35;;
46284;SDS011;32018;59.182;18.148;2023-05-10T06:20:09;4.55;;;2.90;;
46284;SDS011;32018;59.182;18.148;2023-05-10T06:22:34;2.95;;;2.75;;
46284;SDS011;32018;59.182;18.148;2023-05-10T06:25:00;3.58;;;3.28;;
46284;SDS011;32018;59.182;18.148;2023-05-10T06:27:25;3.00;;;2.80;;
46284;SDS011;32018;59.182;18.148;2023-05-10T06:29:50;3.67;;;2.67;;
46284;SDS011;32018;59.182;18.148;2023-05-10T06:32:16;3.50;;;3.20;;
46284;SDS011;32018;59.182;18.148;2023-05-10T06:34:41;3.75;;;2.83;;
46284;SDS011;32018;59.182;18.148;2023-05-10T06:37:08;3.75;;;3.38;;
46284;SDS011;32018;59.182;18.148;2023-05-10T06:39:33;3.20;;;2.90;;
46284;SDS011;32018;59.182;18.148;2023-05-10T06:41:58;2.70;;;2.50;;
46284;SDS011;32018;59.182;18.148;2023-05-10T06:44:23;3.17;;;2.87;;
46284;SDS011;32018;59.182;18.148;2023-05-10T06:46:49;2.97;;;2.67;;
46284;SDS011;32018;59.182;18.148;2023-05-10T06:49:14;3.00;;;2.70;;
46284;SDS011;32018;59.182;18.148;2023-05-10T06:51:40;3.37;;;2.93;;
46284;SDS011;32018;59.182;18.148;2023-05-10T06:54:05;3.10;;;2.80;;
46284;SDS011;32018;59.182;18.148;2023-05-10T06:56:30;2.65;;;2.45;;
46284;SDS011;32018;59.182;18.148;2023-05-10T06:58:55;3.83;;;2.80;;
46284;SDS011;32018;59.182;18.148;2023-05-10T07:01:21;6.80;;;2.60;;
46284;SDS011;32018;59.182;18.148;2023-05-10T07:03:46;5.10;;;3.00;;
46284;SDS011;32018;59.182;18.148;2023-05-10T07:06:11;4.30;;;2.83;;
46284;SDS011;32018;59.182;18.148;2023-05-10T07:08:36;6.63;;;2.90;;
46284;SDS011;32018;59.182;18.148;2023-05-10T07:11:06;3.43;;;3.20;;
46284;SDS011;32018;59.182;18.148;2023-05-10T07:13:32;2.50;;;2.30;;
46284;SDS011;32018;59.182;18.148;2023-05-10T07:15:58;3.03;;;2.70;;
46284;SDS011;32018;59.182;18.148;2023-05-10T07:18:24;3.90;;;2.63;;
46284;SDS011;32018;59.182;18.148;2023-05-10T07:20:49;3.22;;;2.75;;
46284;SDS011;32018;59.182;18.148;2023-05-10T07:23:14;4.05;;;2.50;;
46284;SDS011;32018;59.182;18.148;2023-05-10T07:25:40;4.68;;;2.88;;
46284;SDS011;32018;59.182;18.148;2023-05-10T07:28:05;4.10;;;2.50;;
46284;SDS011;32018;59.182;18.148;2023-05-10T07:30:30;4.67;;;2.83;;
46284;SDS011;32018;59.182;18.148;2023-05-10T07:32:55;4.90;;;2.75;;
46284;SDS011;32018;59.182;18.148;2023-05-10T07:35:20;5.53;;;3.08;;
46284;SDS011;32018;59.182;18.148;2023-05-10T07:37:46;5.80;;;2.47;;
46284;SDS011;32018;59.182;18.148;2023-05-10T07:40:11;4.00;;;2.55;;
46284;SDS011;32018;59.182;18.148;2023-05-10T07:42:36;5.85;;;3.35;;
46284;SDS011;32018;59.182;18.148;2023-05-10T07:45:01;6.40;;;2.78;;
46284;SDS011;32018;59.182;18.148;2023-05-10T07:47:27;5.30;;;2.65;;
46284;SDS011;32018;59.182;18.148;2023-05-10T07:49:52;3.33;;;3.00;;
46284;SDS011;32018;59.182;18.148;2023-05-10T07:52:17;3.30;;;2.60;;
46284;SDS011;32018;59.182;18.148;2023-05-10T07:54:42;3.00;;;2.70;;
46284;SDS011;32018;59.182;18.148;2023-05-10T07:57:08;3.10;;;2.63;;
46284;SDS011;32018;59.182;18.148;2023-05-10T07:59:33;4.77;;;2.80;;
46284;SDS011;32018;59.182;18.148;2023-05-10T08:01:58;4.65;;;2.78;;
46284;SDS011;32018;59.182;18.148;2023-05-10T08:04:24;24.15;;;4.88;;
46284;SDS011;32018;59.182;18.148;2023-05-10T08:06:49;4.40;;;3.88;;
46284;SDS011;32018;59.182;18.148;2023-05-10T08:09:14;6.55;;;2.78;;
46284;SDS011;32018;59.182;18.148;2023-05-10T08:11:40;3.40;;;2.35;;
46284;SDS011;32018;59.182;18.148;2023-05-10T08:14:05;2.58;;;2.38;;
46284;SDS011;32018;59.182;18.148;2023-05-10T08:16:31;5.37;;;2.83;;
46284;SDS011;32018;59.182;18.148;2023-05-10T08:18:57;9.48;;;2.35;;
46284;SDS011;32018;59.182;18.148;2023-05-10T08:21:22;3.08;;;2.40;;
46284;SDS011;32018;59.182;18.148;2023-05-10T08:23:47;2.87;;;2.33;;
46284;SDS011;32018;59.182;18.148;2023-05-10T08:26:13;4.38;;;2.03;;
46284;SDS011;32018;59.182;18.148;2023-05-10T08:28:39;2.67;;;2.10;;
46284;SDS011;32018;59.182;18.148;2023-05-10T08:31:04;4.25;;;2.22;;
46284;SDS011;32018;59.182;18.148;2023-05-10T08:33:29;4.53;;;2.17;;
46284;SDS011;32018;59.182;18.148;2023-05-10T08:35:55;7.47;;;2.23;;
46284;SDS011;32018;59.182;18.148;2023-05-10T08:38:20;3.33;;;2.27;;
46284;SDS011;32018;59.182;18.148;2023-05-10T08:40:45;6.18;;;2.97;;
46284;SDS011;32018;59.182;18.148;2023-05-10T08:43:12;2.65;;;2.22;;
46284;SDS011;32018;59.182;18.148;2023-05-10T08:45:44;4.65;;;2.28;;
46284;SDS011;32018;59.182;18.148;2023-05-10T08:48:13;1.83;;;1.73;;
46284;SDS011;32018;59.182;18.148;2023-05-10T08:50:39;2.88;;;2.20;;
46284;SDS011;32018;59.182;18.148;2023-05-10T08:53:12;5.65;;;2.47;;
46284;SDS011;32018;59.182;18.148;2023-05-10T08:55:38;2.55;;;2.25;;
46284;SDS011;32018;59.182;18.148;2023-05-10T08:58:05;4.57;;;2.35;;
46284;SDS011;32018;59.182;18.148;2023-05-10T09:00:30;2.67;;;2.30;;
46284;SDS011;32018;59.182;18.148;2023-05-10T09:02:57;2.42;;;2.15;;
46284;SDS011;32018;59.182;18.148;2023-05-10T09:05:22;2.92;;;2.60;;
46284;SDS011;32018;59.182;18.148;2023-05-10T09:07:48;5.32;;;2.15;;
46284;SDS011;32018;59.182;18.148;2023-05-10T09:10:13;2.65;;;2.20;;
46284;SDS011;32018;59.182;18.148;2023-05-10T09:12:39;3.72;;;2.65;;
46284;SDS011;32018;59.182;18.148;2023-05-10T09:15:05;3.17;;;2.83;;
46284;SDS011;32018;59.182;18.148;2023-05-10T09:17:31;5.80;;;3.42;;
46284;SDS011;32018;59.182;18.148;2023-05-10T09:19:57;2.97;;;2.50;;
46284;SDS011;32018;59.182;18.148;2023-05-10T09:22:22;3.13;;;2.90;;
46284;SDS011;32018;59.182;18.148;2023-05-10T09:24:48;4.28;;;2.70;;
46284;SDS011;32018;59.182;18.148;2023-05-10T09:27:27;3.45;;;2.30;;
46284;SDS011;32018;59.182;18.148;2023-05-10T09:29:53;2.67;;;2.20;;
46284;SDS011;32018;59.182;18.148;2023-05-10T09:32:20;4.88;;;2.28;;
46284;SDS011;32018;59.182;18.148;2023-05-10T09:34:45;2.30;;;1.80;;
46284;SDS011;32018;59.182;18.148;2023-05-10T09:37:10;2.60;;;2.00;;
46284;SDS011;32018;59.182;18.148;2023-05-10T09:39:36;2.33;;;1.98;;
46284;SDS011;32018;59.182;18.148;2023-05-10T09:42:05;4.20;;;2.00;;
46284;SDS011;32018;59.182;18.148;2023-05-10T09:44:32;11.40;;;2.47;;
46284;SDS011;32018;59.182;18.148;2023-05-10T09:46:57;2.80;;;2.13;;
46284;SDS011;32018;59.182;18.148;2023-05-10T09:49:23;3.63;;;2.50;;
46284;SDS011;32018;59.182;18.148;2023-05-10T09:52:04;2.60;;;1.90;;
46284;SDS011;32018;59.182;18.148;2023-05-10T09:54:30;3.33;;;2.42;;
46284;SDS011;32018;59.182;18.148;2023-05-10T09:56:56;4.88;;;2.20;;
46284;SDS011;32018;59.182;18.148;2023-05-10T09:59:21;5.18;;;2.22;;
46284;SDS011;32018;59.182;18.148;2023-05-10T10:01:49;2.83;;;2.38;;
46284;SDS011;32018;59.182;18.148;2023-05-10T10:04:14;5.13;;;2.50;;
46284;SDS011;32018;59.182;18.148;2023-05-10T10:06:40;4.03;;;2.60;;
46284;SDS011;32018;59.182;18.148;2023-05-10T10:09:05;2.60;;;2.20;;
46284;SDS011;32018;59.182;18.148;2023-05-10T10:11:31;3.38;;;2.33;;
46284;SDS011;32018;59.182;18.148;2023-05-10T10:13:56;2.90;;;2.60;;
46284;SDS011;32018;59.182;18.148;2023-05-10T10:16:21;3.08;;;2.28;;
46284;SDS011;32018;59.182;18.148;2023-05-10T10:18:47;1.95;;;1.75;;
46284;SDS011;32018;59.182;18.148;2023-05-10T10:21:13;2.58;;;1.77;;
46284;SDS011;32018;59.182;18.148;2023-05-10T10:23:38;3.42;;;2.35;;
46284;SDS011;32018;59.182;18.148;2023-05-10T10:26:04;3.57;;;2.10;;
46284;SDS011;32018;59.182;18.148;2023-05-10T10:30:59;9.25;;;2.22;;
46284;SDS011;32018;59.182;18.148;2023-05-10T10:33:33;3.85;;;1.83;;
46284;SDS011;32018;59.182;18.148;2023-05-10T10:36:01;6.22;;;2.10;;
46284;SDS011;32018;59.182;18.148;2023-05-10T10:41:26;2.85;;;2.13;;
46284;SDS011;32018;59.182;18.148;2023-05-10T10:44:21;4.30;;;2.30;;
46284;SDS011;32018;59.182;18.148;2023-05-10T10:46:51;3.88;;;3.33;;
46284;SDS011;32018;59.182;18.148;2023-05-10T10:49:22;4.30;;;2.53;;
46284;SDS011;32018;59.182;18.148;2023-05-10T10:54:32;1.95;;;1.85;;
46284;SDS011;32018;59.182;18.148;2023-05-10T10:57:13;2.95;;;2.25;;
46284;SDS011;32018;59.182;18.148;2023-05-10T10:59:42;2.35;;;1.92;;
46284;SDS011;32018;59.182;18.148;2023-05-10T11:04:55;2.25;;;1.95;;
46284;SDS011;32018;59.182;18.148;2023-05-10T11:07:20;5.60;;;2.33;;
46284;SDS011;32018;59.182;18.148;2023-05-10T11:09:46;3.80;;;2.07;;
46284;SDS011;32018;59.182;18.148;2023-05-10T11:12:11;5.25;;;2.00;;
46284;SDS011;32018;59.182;18.148;2023-05-10T11:14:37;2.22;;;1.52;;
46284;SDS011;32018;59.182;18.148;2023-05-10T11:17:02;2.20;;;1.80;;
46284;SDS011;32018;59.182;18.148;2023-05-10T11:20:02;2.50;;;1.90;;
46284;SDS011;32018;59.182;18.148;2023-05-10T11:22:27;4.25;;;1.70;;
46284;SDS011;32018;59.182;18.148;2023-05-10T11:24:56;3.63;;;1.90;;
46284;SDS011;32018;59.182;18.148;2023-05-10T11:27:23;8.73;;;2.08;;
46284;SDS011;32018;59.182;18.148;2023-05-10T11:29:51;3.13;;;1.58;;
46284;SDS011;32018;59.182;18.148;2023-05-10T11:32:16;2.92;;;2.03;;
46284;SDS011;32018;59.182;18.148;2023-05-10T11:34:41;6.60;;;5.38;;
46284;SDS011;32018;59.182;18.148;2023-05-10T11:37:07;2.70;;;2.50;;
46284;SDS011;32018;59.182;18.148;2023-05-10T11:39:32;2.67;;;1.93;;
46284;SDS011;32018;59.182;18.148;2023-05-10T11:41:58;1.73;;;1.63;;
46284;SDS011;32018;59.182;18.148;2023-05-10T11:44:30;1.80;;;1.60;;
46284;SDS011;32018;59.182;18.148;2023-05-10T11:46:58;2.42;;;2.05;;
46284;SDS011;32018;59.182;18.148;2023-05-10T11:49:23;4.70;;;2.13;;
46284;SDS011;32018;59.182;18.148;2023-05-10T11:51:49;5.82;;;1.85;;
46284;SDS011;32018;59.182;18.148;2023-05-10T11:54:15;3.58;;;2.00;;
46284;SDS011;32018;59.182;18.148;2023-05-10T11:56:40;3.85;;;1.73;;
46284;SDS011;32018;59.182;18.148;2023-05-10T11:59:05;2.53;;;2.10;;
46284;SDS011;32018;59.182;18.148;2023-05-10T12:01:31;3.88;;;1.65;;
46284;SDS011;32018;59.182;18.148;2023-05-10T12:03:56;2.10;;;1.90;;
46284;SDS011;32018;59.182;18.148;2023-05-10T12:06:29;2.63;;;1.90;;
46284;SDS011;32018;59.182;18.148;2023-05-10T12:08:55;4.95;;;2.05;;
46284;SDS011;32018;59.182;18.148;2023-05-10T12:11:23;7.18;;;1.65;;
46284;SDS011;32018;59.182;18.148;2023-05-10T12:13:49;2.20;;;1.42;;
46284;SDS011;32018;59.182;18.148;2023-05-10T12:16:19;3.28;;;2.03;;
46284;SDS011;32018;59.182;18.148;2023-05-10T12:18:45;5.15;;;1.50;;
46284;SDS011;32018;59.182;18.148;2023-05-10T12:21:10;7.20;;;1.30;;
46284;SDS011;32018;59.182;18.148;2023-05-10T12:23:36;2.22;;;2.03;;
46284;SDS011;32018;59.182;18.148;2023-05-10T12:26:02;3.13;;;2.30;;
46284;SDS011;32018;59.182;18.148;2023-05-10T12:28:29;3.10;;;1.77;;
46284;SDS011;32018;59.182;18.148;2023-05-10T12:30:55;2.53;;;1.80;;
46284;SDS011;32018;59.182;18.148;2023-05-10T12:33:22;1.98;;;1.77;;
46284;SDS011;32018;59.182;18.148;2023-05-10T12:35:48;2.00;;;1.63;;
46284;SDS011;32018;59.182;18.148;2023-05-10T12:38:26;2.22;;;1.63;;
46284;SDS011;32018;59.182;18.148;2023-05-10T12:40:54;3.95;;;2.00;;
46284;SDS011;32018;59.182;18.148;2023-05-10T12:43:19;2.25;;;2.00;;
46284;SDS011;32018;59.182;18.148;2023-05-10T12:45:45;1.65;;;1.55;;
46284;SDS011;32018;59.182;18.148;2023-05-10T12:48:13;2.67;;;2.47;;
46284;SDS011;32018;59.182;18.148;2023-05-10T12:50:38;6.00;;;2.20;;
46284;SDS011;32018;59.182;18.148;2023-05-10T12:53:03;5.37;;;2.10;;
46284;SDS011;32018;59.182;18.148;2023-05-10T12:55:28;1.75;;;1.40;;
46284;SDS011;32018;59.182;18.148;2023-05-10T12:57:53;3.00;;;1.73;;
46284;SDS011;32018;59.182;18.148;2023-05-10T13:00:19;4.90;;;1.70;;
46284;SDS011;32018;59.182;18.148;2023-05-10T13:02:44;3.05;;;1.73;;
46284;SDS011;32018;59.182;18.148;2023-05-10T13:05:09;14.30;;;1.80;;
46284;SDS011;32018;59.182;18.148;2023-05-10T13:07:34;4.43;;;2.08;;
46284;SDS011;32018;59.182;18.148;2023-05-10T13:10:00;2.78;;;1.73;;
46284;SDS011;32018;59.182;18.148;2023-05-10T13:12:25;2.43;;;1.80;;
46284;SDS011;32018;59.182;18.148;2023-05-10T13:14:50;3.17;;;1.80;;
46284;SDS011;32018;59.182;18.148;2023-05-10T13:17:15;6.97;;;1.97;;
46284;SDS011;32018;59.182;18.148;2023-05-10T13:19:41;3.13;;;1.73;;
46284;SDS011;32018;59.182;18.148;2023-05-10T13:22:06;2.60;;;1.57;;
46284;SDS011;32018;59.182;18.148;2023-05-10T13:24:31;3.53;;;1.80;;
46284;SDS011;32018;59.182;18.148;2023-05-10T13:26:56;2.58;;;1.40;;
46284;SDS011;32018;59.182;18.148;2023-05-10T13:29:22;2.77;;;1.80;;
46284;SDS011;32018;59.182;18.148;2023-05-10T13:31:47;3.90;;;1.88;;
46284;SDS011;32018;59.182;18.148;2023-05-10T13:34:12;15.88;;;1.95;;
46284;SDS011;32018;59.182;18.148;2023-05-10T13:36:38;3.37;;;1.50;;
46284;SDS011;32018;59.182;18.148;2023-05-10T13:39:03;1.77;;;1.50;;
46284;SDS011;32018;59.182;18.148;2023-05-10T13:41:30;9.48;;;1.98;;
46284;SDS011;32018;59.182;18.148;2023-05-10T13:43:55;5.40;;;2.33;;
46284;SDS011;32018;59.182;18.148;2023-05-10T13:46:20;3.40;;;1.70;;
46284;SDS011;32018;59.182;18.148;2023-05-10T13:48:45;3.53;;;2.23;;
46284;SDS011;32018;59.182;18.148;2023-05-10T13:51:11;3.47;;;1.60;;
46284;SDS011;32018;59.182;18.148;2023-05-10T13:53:36;3.97;;;1.53;;
46284;SDS011;32018;59.182;18.148;2023-05-10T13:56:01;3.37;;;1.40;;
46284;SDS011;32018;59.182;18.148;2023-05-10T13:58:27;1.77;;;1.50;;
46284;SDS011;32018;59.182;18.148;2023-05-10T14:00:53;3.08;;;1.20;;
46284;SDS011;32018;59.182;18.148;2023-05-10T14:03:18;3.75;;;1.73;;
46284;SDS011;32018;59.182;18.148;2023-05-10T14:05:43;2.30;;;1.30;;
46284;SDS011;32018;59.182;18.148;2023-05-10T14:08:09;2.38;;;1.60;;
46284;SDS011;32018;59.182;18.148;2023-05-10T14:10:35;3.88;;;1.70;;
46284;SDS011;32018;59.182;18.148;2023-05-10T14:13:01;1.55;;;1.40;;
46284;SDS011;32018;59.182;18.148;2023-05-10T14:15:28;3.50;;;1.45;;
46284;SDS011;32018;59.182;18.148;2023-05-10T14:17:53;4.70;;;1.67;;
46284;SDS011;32018;59.182;18.148;2023-05-10T14:20:18;2.30;;;1.53;;
46284;SDS011;32018;59.182;18.148;2023-05-10T14:22:43;1.60;;;1.40;;
46284;SDS011;32018;59.182;18.148;2023-05-10T14:25:08;3.13;;;1.90;;
46284;SDS011;32018;59.182;18.148;2023-05-10T14:27:34;3.22;;;1.40;;
46284;SDS011;32018;59.182;18.148;2023-05-10T14:29:59;1.95;;;1.30;;
46284;SDS011;32018;59.182;18.148;2023-05-10T14:32:24;1.42;;;1.33;;
46284;SDS011;32018;59.182;18.148;2023-05-10T14:34:51;4.75;;;1.40;;
46284;SDS011;32018;59.182;18.148;2023-05-10T14:37:17;1.95;;;1.50;;
46284;SDS011;32018;59.182;18.148;2023-05-10T14:39:42;10.57;;;2.40;;
46284;SDS011;32018;59.182;18.148;2023-05-10T14:42:07;19.35;;;1.90;;
46284;SDS011;32018;59.182;18.148;2023-05-10T14:44:33;3.88;;;1.30;;
46284;SDS011;32018;59.182;18.148;2023-05-10T14:46:58;2.80;;;1.40;;
46284;SDS011;32018;59.182;18.148;2023-05-10T14:49:23;2.17;;;1.97;;
46284;SDS011;32018;59.182;18.148;2023-05-10T14:51:50;3.15;;;1.40;;
46284;SDS011;32018;59.182;18.148;2023-05-10T14:54:15;2.15;;;1.40;;
46284;SDS011;32018;59.182;18.148;2023-05-10T14:56:41;3.30;;;1.75;;